createdAt,value
2022-11-03T00:00:15.404Z,7.93
2022-11-03T00:01:15.402Z,8.06
2022-11-03T00:02:15.409Z,7.95
2022-11-03T00:03:15.233Z,8.03
2022-11-03T00:04:15.185Z,8.01
2022-11-03T00:05:15.131Z,8.08
2022-11-03T00:06:15.066Z,8.16
2022-11-03T00:07:15.023Z,8.26
2022-11-03T00:08:14.972Z,8.28
2022-11-03T00:09:14.898Z,8.24
2022-11-03T00:10:14.839Z,8.15
2022-11-03T00:11:14.784Z,8.26
2022-11-03T00:12:14.734Z,8.26
2022-11-03T00:13:14.704Z,8.18
2022-11-03T00:14:14.619Z,8.28
2022-11-03T00:15:14.563Z,8.18
2022-11-03T00:16:14.504Z,8.13
2022-11-03T00:17:14.451Z,8.23
2022-11-03T00:18:14.405Z,8.20
2022-11-03T00:19:14.337Z,8.23
2022-11-03T00:20:14.282Z,8.20
2022-11-03T00:21:14.224Z,8.20
2022-11-03T00:22:14.179Z,8.20
2022-11-03T00:23:14.111Z,8.15
2022-11-03T00:24:14.059Z,8.24
2022-11-03T00:25:14.015Z,8.19
2022-11-03T00:26:13.942Z,8.24
2022-11-03T00:27:13.895Z,8.26
2022-11-03T00:28:13.830Z,8.19
2022-11-03T00:29:13.776Z,8.16
2022-11-03T00:30:13.798Z,8.18
2022-11-03T00:31:13.661Z,8.09
2022-11-03T00:32:13.605Z,8.00
2022-11-03T00:33:13.549Z,8.03
2022-11-03T00:34:13.492Z,7.94
2022-11-03T00:35:13.453Z,7.95
2022-11-03T00:36:13.381Z,7.94
2022-11-03T00:37:13.338Z,7.88
2022-11-03T00:38:13.295Z,7.88
2022-11-03T00:39:13.235Z,7.94
2022-11-03T00:40:13.169Z,7.88
2022-11-03T00:41:13.100Z,7.88
2022-11-03T00:42:13.041Z,7.76
2022-11-03T00:43:12.987Z,7.75
2022-11-03T00:44:12.931Z,7.75
2022-11-03T00:45:12.888Z,7.94
2022-11-03T00:46:12.818Z,8.03
2022-11-03T00:47:12.761Z,8.28
2022-11-03T00:48:12.706Z,8.34
2022-11-03T00:49:12.649Z,8.45
2022-11-03T00:50:12.607Z,8.56
2022-11-03T00:51:12.551Z,8.52
2022-11-03T00:52:12.479Z,8.60
2022-11-03T00:53:12.423Z,8.69
2022-11-03T00:54:12.364Z,8.69
2022-11-03T00:55:12.327Z,8.73
2022-11-03T00:56:12.271Z,8.66
2022-11-03T00:57:12.212Z,8.69
2022-11-03T00:58:12.144Z,8.63
2022-11-03T00:59:12.085Z,8.74
2022-11-03T01:00:12.050Z,8.74
2022-11-03T01:01:12.076Z,8.70
2022-11-03T01:02:12.067Z,8.74
2022-11-03T01:03:11.879Z,8.69
2022-11-03T01:04:11.802Z,8.70
2022-11-03T01:05:11.751Z,8.58
2022-11-03T01:06:11.696Z,8.63
2022-11-03T01:07:11.653Z,8.66
2022-11-03T01:08:11.593Z,8.58
2022-11-03T01:09:11.524Z,8.63
2022-11-03T01:10:11.467Z,8.63
2022-11-03T01:11:11.409Z,8.73
2022-11-03T01:12:11.369Z,8.58
2022-11-03T01:13:11.299Z,8.70
2022-11-03T01:14:11.242Z,8.69
2022-11-03T01:15:11.184Z,8.64
2022-11-03T01:16:11.131Z,8.61
2022-11-03T01:17:11.087Z,8.64
2022-11-03T01:18:11.035Z,8.67
2022-11-03T01:19:10.964Z,8.64
2022-11-03T01:20:10.924Z,8.70
2022-11-03T01:21:10.850Z,8.67
2022-11-03T01:22:11.179Z,8.61
2022-11-03T01:23:10.740Z,8.69
2022-11-03T01:24:10.683Z,8.64
2022-11-03T01:25:10.641Z,8.63
2022-11-03T01:26:10.571Z,8.53
2022-11-03T01:27:10.514Z,8.52
2022-11-03T01:28:10.460Z,8.56
2022-11-03T01:29:10.405Z,8.63
2022-11-03T01:30:10.358Z,8.55
2022-11-03T01:31:10.305Z,8.61
2022-11-03T01:32:10.234Z,8.67
2022-11-03T01:33:10.190Z,8.66
2022-11-03T01:34:10.137Z,8.64
2022-11-03T01:35:10.065Z,8.70
2022-11-03T01:36:10.013Z,8.63
2022-11-03T01:37:09.955Z,8.70
2022-11-03T01:38:09.915Z,8.76
2022-11-03T01:39:09.841Z,8.78
2022-11-03T01:40:09.783Z,8.74
2022-11-03T01:41:09.730Z,8.73
2022-11-03T01:42:09.675Z,8.74
2022-11-03T01:43:09.615Z,8.78
2022-11-03T01:44:09.575Z,8.71
2022-11-03T01:45:09.519Z,8.71
2022-11-03T01:46:09.448Z,8.73
2022-11-03T01:47:09.390Z,8.66
2022-11-03T01:48:09.335Z,8.61
2022-11-03T01:49:09.279Z,8.60
2022-11-03T01:50:09.239Z,8.53
2022-11-03T01:51:09.166Z,8.44
2022-11-03T01:52:09.124Z,8.49
2022-11-03T01:53:09.337Z,8.44
2022-11-03T01:54:09.023Z,8.33
2022-11-03T01:55:08.945Z,8.33
2022-11-03T01:56:08.887Z,8.30
2022-11-03T01:57:08.847Z,8.31
2022-11-03T01:58:08.781Z,8.34
2022-11-03T01:59:08.719Z,8.23
2022-11-03T02:00:08.664Z,8.27
2022-11-03T02:01:08.657Z,8.27
2022-11-03T02:02:08.675Z,8.33
2022-11-03T02:03:08.748Z,8.33
2022-11-03T02:04:08.440Z,8.28
2022-11-03T02:05:08.395Z,8.34
2022-11-03T02:06:08.327Z,8.33
2022-11-03T02:07:08.272Z,8.28
2022-11-03T02:09:08.158Z,8.28
2022-11-03T02:10:08.114Z,8.31
2022-11-03T02:11:08.042Z,8.37
2022-11-03T02:12:08.005Z,8.48
2022-11-03T02:13:08.180Z,8.60
2022-11-03T02:14:07.895Z,8.63
2022-11-03T02:15:07.819Z,8.61
2022-11-03T02:16:07.767Z,8.74
2022-11-03T02:17:07.709Z,8.81
2022-11-03T02:18:07.653Z,8.87
2022-11-03T02:19:07.626Z,8.89
2022-11-03T02:20:07.539Z,8.95
2022-11-03T02:21:07.483Z,9.02
2022-11-03T02:22:07.426Z,8.91
2022-11-03T02:23:07.657Z,9.00
2022-11-03T02:24:07.322Z,8.91
2022-11-03T02:25:07.275Z,9.02
2022-11-03T02:26:07.217Z,8.97
2022-11-03T02:27:07.145Z,8.97
2022-11-03T02:28:07.089Z,8.89
2022-11-03T02:29:07.036Z,8.89
2022-11-03T02:30:06.992Z,8.84
2022-11-03T02:31:06.920Z,8.81
2022-11-03T02:32:06.862Z,8.82
2022-11-03T02:33:07.102Z,8.74
2022-11-03T02:34:06.753Z,8.69
2022-11-03T02:35:06.696Z,8.78
2022-11-03T02:36:06.652Z,8.64
2022-11-03T02:37:06.595Z,8.64
2022-11-03T02:38:06.542Z,8.60
2022-11-03T02:39:06.471Z,8.67
2022-11-03T02:40:06.416Z,8.60
2022-11-03T02:41:06.375Z,8.53
2022-11-03T02:42:06.309Z,8.48
2022-11-03T02:43:06.491Z,8.49
2022-11-03T02:44:06.193Z,8.45
2022-11-03T02:45:06.137Z,8.45
2022-11-03T02:46:06.095Z,8.41
2022-11-03T02:47:06.022Z,8.38
2022-11-03T02:48:05.966Z,8.42
2022-11-03T02:49:05.929Z,8.41
2022-11-03T02:50:05.854Z,8.48
2022-11-03T02:51:05.810Z,8.45
2022-11-03T02:52:05.745Z,8.51
2022-11-03T02:53:06.172Z,8.49
2022-11-03T02:54:05.630Z,8.46
2022-11-03T02:55:05.572Z,8.48
2022-11-03T02:56:05.528Z,8.52
2022-11-03T02:57:05.462Z,8.70
2022-11-03T02:58:05.405Z,8.66
2022-11-03T02:59:05.362Z,8.69
2022-11-03T03:00:05.299Z,8.66
2022-11-03T03:01:05.281Z,8.67
2022-11-03T03:02:05.357Z,8.70
2022-11-03T03:03:05.368Z,8.69
2022-11-03T03:04:05.069Z,8.66
2022-11-03T03:05:05.012Z,8.67
2022-11-03T03:06:04.989Z,8.70
2022-11-03T03:07:04.916Z,8.76
2022-11-03T03:08:04.844Z,8.67
2022-11-03T03:09:04.785Z,8.73
2022-11-03T03:10:04.734Z,8.76
2022-11-03T03:11:04.673Z,8.85
2022-11-03T03:12:04.639Z,8.78
2022-11-03T03:13:04.909Z,8.82
2022-11-03T03:14:04.508Z,8.91
2022-11-03T03:15:04.449Z,8.85
2022-11-03T03:16:04.408Z,8.91
2022-11-03T03:17:04.342Z,8.91
2022-11-03T03:18:04.284Z,8.85
2022-11-03T03:19:04.228Z,8.88
2022-11-03T03:20:04.192Z,8.81
2022-11-03T03:21:04.117Z,8.85
2022-11-03T03:22:04.059Z,8.87
2022-11-03T03:23:06.236Z,8.79
2022-11-03T03:24:03.949Z,8.79
2022-11-03T03:25:03.891Z,8.82
2022-11-03T03:26:03.838Z,8.88
2022-11-03T03:27:03.779Z,8.78
2022-11-03T03:28:03.736Z,8.79
2022-11-03T03:29:03.670Z,8.82
2022-11-03T03:30:03.611Z,8.79
2022-11-03T03:31:03.556Z,8.82
2022-11-03T03:32:03.513Z,8.78
2022-11-03T03:33:03.691Z,8.81
2022-11-03T03:34:10.478Z,8.73
2022-11-03T03:35:03.330Z,8.73
2022-11-03T03:36:03.282Z,8.78
2022-11-03T03:37:03.219Z,8.74
2022-11-03T03:38:03.344Z,8.71
2022-11-03T03:39:03.121Z,8.71
2022-11-03T03:40:03.054Z,8.78
2022-11-03T03:41:06.704Z,8.67
2022-11-03T03:42:02.938Z,8.70
2022-11-03T03:43:02.897Z,8.66
2022-11-03T03:44:02.825Z,8.66
2022-11-03T03:45:02.787Z,8.79
2022-11-03T03:46:02.716Z,8.64
2022-11-03T03:47:02.660Z,8.64
2022-11-03T03:48:02.604Z,8.58
2022-11-03T03:49:02.549Z,8.71
2022-11-03T03:50:02.506Z,8.70
2022-11-03T03:51:02.449Z,8.64
2022-11-03T03:52:02.377Z,8.73
2022-11-03T03:53:02.338Z,8.70
2022-11-03T03:54:02.270Z,8.64
2022-11-03T03:55:02.216Z,8.66
2022-11-03T03:56:02.168Z,8.60
2022-11-03T03:57:02.110Z,8.70
2022-11-03T03:58:02.042Z,8.66
2022-11-03T03:59:02.004Z,8.66
2022-11-03T04:00:01.944Z,8.67
2022-11-03T04:01:01.911Z,8.71
2022-11-03T04:02:01.916Z,8.69
2022-11-03T04:03:01.761Z,8.61
2022-11-03T04:04:01.720Z,8.64
2022-11-03T04:05:01.652Z,8.76
2022-11-03T04:06:01.606Z,8.60
2022-11-03T04:07:01.554Z,8.74
2022-11-03T04:08:01.483Z,8.67
2022-11-03T04:09:01.425Z,8.64
2022-11-03T04:10:01.372Z,8.66
2022-11-03T04:11:01.316Z,8.70
2022-11-03T04:12:01.276Z,8.71
2022-11-03T04:13:01.200Z,8.63
2022-11-03T04:14:01.146Z,8.70
2022-11-03T04:15:01.093Z,8.67
2022-11-03T04:16:01.050Z,8.64
2022-11-03T04:17:00.978Z,8.69
2022-11-03T04:18:00.939Z,8.70
2022-11-03T04:19:00.867Z,8.61
2022-11-03T04:20:00.814Z,8.71
2022-11-03T04:21:00.754Z,8.66
2022-11-03T04:22:00.732Z,8.64
2022-11-03T04:23:00.658Z,8.61
2022-11-03T04:24:00.584Z,8.69
2022-11-03T04:25:00.531Z,8.67
2022-11-03T04:26:00.493Z,8.71
2022-11-03T04:27:00.415Z,8.61
2022-11-03T04:28:00.364Z,8.55
2022-11-03T04:29:00.325Z,8.63
2022-11-03T04:30:00.248Z,8.56
2022-11-03T04:31:00.221Z,8.52
2022-11-03T04:32:00.138Z,8.52
2022-11-03T04:33:00.102Z,8.49
2022-11-03T04:34:00.026Z,8.56
2022-11-03T04:34:59.968Z,8.49
2022-11-03T04:35:59.914Z,8.45
2022-11-03T04:36:59.870Z,8.46
2022-11-03T04:37:59.801Z,8.45
2022-11-03T04:38:59.760Z,8.49
2022-11-03T04:39:59.689Z,8.46
2022-11-03T04:40:59.649Z,8.49
2022-11-03T04:41:59.589Z,8.45
2022-11-03T04:42:59.521Z,8.48
2022-11-03T04:43:59.466Z,8.44
2022-11-03T04:44:59.407Z,8.44
2022-11-03T04:45:59.354Z,8.41
2022-11-03T04:46:59.306Z,8.36
2022-11-03T04:47:59.240Z,8.27
2022-11-03T04:48:59.186Z,8.28
2022-11-03T04:49:59.126Z,8.36
2022-11-03T04:50:59.088Z,8.19
2022-11-03T04:51:59.014Z,8.28
2022-11-03T04:52:58.976Z,8.30
2022-11-03T04:53:58.904Z,8.28
2022-11-03T04:54:58.862Z,8.28
2022-11-03T04:56:01.511Z,8.34
2022-11-03T04:56:58.737Z,8.36
2022-11-03T04:57:58.692Z,8.37
2022-11-03T04:58:58.646Z,8.38
2022-11-03T04:59:58.575Z,8.33
2022-11-03T05:00:58.525Z,8.41
2022-11-03T05:01:58.678Z,8.45
2022-11-03T05:02:58.394Z,8.42
2022-11-03T05:03:58.354Z,8.45
2022-11-03T05:04:58.297Z,8.42
2022-11-03T05:05:58.227Z,8.42
2022-11-03T05:06:58.185Z,8.49
2022-11-03T05:07:58.112Z,8.46
2022-11-03T05:08:58.056Z,8.49
2022-11-03T05:09:58.552Z,8.51
2022-11-03T05:10:57.960Z,8.49
2022-11-03T05:11:57.888Z,8.49
2022-11-03T05:12:57.834Z,8.51
2022-11-03T05:13:57.780Z,8.48
2022-11-03T05:14:59.111Z,8.60
2022-11-03T05:15:57.664Z,8.49
2022-11-03T05:16:57.607Z,8.48
2022-11-03T05:17:57.551Z,8.56
2022-11-03T05:18:57.506Z,8.53
2022-11-03T05:19:57.439Z,8.52
2022-11-03T05:20:57.381Z,8.63
2022-11-03T05:21:57.324Z,8.55
2022-11-03T05:22:57.269Z,8.61
2022-11-03T05:23:57.226Z,8.58
2022-11-03T05:24:57.157Z,8.56
2022-11-03T05:25:57.115Z,8.58
2022-11-03T05:26:57.052Z,8.60
2022-11-03T05:27:56.988Z,8.52
2022-11-03T05:28:56.934Z,8.63
2022-11-03T05:29:59.608Z,8.60
2022-11-03T05:30:56.820Z,8.55
2022-11-03T05:31:56.765Z,8.61
2022-11-03T05:32:56.708Z,8.61
2022-11-03T05:33:56.671Z,8.48
2022-11-03T05:34:56.598Z,8.55
2022-11-03T05:35:56.541Z,8.55
2022-11-03T05:36:56.484Z,8.52
2022-11-03T05:37:56.430Z,8.46
2022-11-03T05:38:56.385Z,8.49
2022-11-03T05:39:56.315Z,8.52
2022-11-03T05:40:56.257Z,8.49
2022-11-03T05:41:56.216Z,8.56
2022-11-03T05:42:56.143Z,8.49
2022-11-03T05:43:56.090Z,8.46
2022-11-03T05:44:56.053Z,8.49
2022-11-03T05:45:55.996Z,8.46
2022-11-03T05:46:55.921Z,8.42
2022-11-03T05:47:55.868Z,8.45
2022-11-03T05:48:55.811Z,8.38
2022-11-03T05:49:55.764Z,8.42
2022-11-03T05:50:55.710Z,8.45
2022-11-03T05:51:55.643Z,8.38
2022-11-03T05:52:55.585Z,8.42
2022-11-03T05:53:55.528Z,8.42
2022-11-03T05:54:55.470Z,8.37
2022-11-03T05:55:55.415Z,8.46
2022-11-03T05:56:55.384Z,8.53
2022-11-03T05:57:55.304Z,8.52
2022-11-03T05:58:55.258Z,8.49
2022-11-03T05:59:55.191Z,8.63
2022-11-03T06:00:55.137Z,8.58
2022-11-03T06:01:55.213Z,8.67
2022-11-03T06:02:55.065Z,8.71
2022-11-03T06:03:54.967Z,8.69
2022-11-03T06:04:54.909Z,8.70
2022-11-03T06:05:54.874Z,8.63
2022-11-03T06:06:54.798Z,8.66
2022-11-03T06:07:54.743Z,8.73
2022-11-03T06:08:54.686Z,8.67
2022-11-03T06:09:54.629Z,8.73
2022-11-03T06:10:54.573Z,8.63
2022-11-03T06:11:54.531Z,8.81
2022-11-03T06:12:54.463Z,8.82
2022-11-03T06:13:54.405Z,8.82
2022-11-03T06:14:54.360Z,8.74
2022-11-03T06:15:54.291Z,8.85
2022-11-03T06:16:54.261Z,8.74
2022-11-03T06:17:54.181Z,8.82
2022-11-03T06:18:54.123Z,8.76
2022-11-03T06:19:54.083Z,8.76
2022-11-03T06:20:54.029Z,8.69
2022-11-03T06:21:53.955Z,8.79
2022-11-03T06:22:53.900Z,8.79
2022-11-03T06:23:53.846Z,8.76
2022-11-03T06:24:53.787Z,8.78
2022-11-03T06:25:53.738Z,8.76
2022-11-03T06:26:53.689Z,8.85
2022-11-03T06:27:53.634Z,8.78
2022-11-03T06:28:53.563Z,8.82
2022-11-03T06:29:53.505Z,8.88
2022-11-03T06:30:53.455Z,8.78
2022-11-03T06:31:53.413Z,8.88
2022-11-03T06:32:53.341Z,8.91
2022-11-03T06:33:53.284Z,8.92
2022-11-03T06:34:53.239Z,8.95
2022-11-03T06:35:53.170Z,8.85
2022-11-03T06:36:53.132Z,8.97
2022-11-03T06:37:53.076Z,8.94
2022-11-03T06:38:53.009Z,8.97
2022-11-03T06:39:52.968Z,8.95
2022-11-03T06:40:52.894Z,8.99
2022-11-03T06:41:52.838Z,8.91
2022-11-03T06:42:52.782Z,8.95
2022-11-03T06:43:52.726Z,9.00
2022-11-03T06:44:52.669Z,8.99
2022-11-03T06:45:52.632Z,8.89
2022-11-03T06:46:52.574Z,8.89
2022-11-03T06:47:52.498Z,9.08
2022-11-03T06:48:52.452Z,9.00
2022-11-03T06:49:52.406Z,9.04
2022-11-03T06:50:52.349Z,9.22
2022-11-03T06:51:52.281Z,9.22
2022-11-03T06:52:52.234Z,9.31
2022-11-03T06:53:52.168Z,9.22
2022-11-03T06:54:52.158Z,9.22
2022-11-03T06:55:52.056Z,9.26
2022-11-03T06:56:52.018Z,9.26
2022-11-03T06:57:51.940Z,9.22
2022-11-03T06:58:51.884Z,9.23
2022-11-03T07:00:06.714Z,9.19
2022-11-03T07:00:52.215Z,9.19
2022-11-03T07:01:51.807Z,9.23
2022-11-03T07:02:51.674Z,9.39
2022-11-03T07:03:51.606Z,9.41
2022-11-03T07:04:51.550Z,9.54
2022-11-03T07:05:51.498Z,9.50
2022-11-03T07:06:53.553Z,9.58
2022-11-03T07:07:51.396Z,9.43
2022-11-03T07:08:51.325Z,9.50
2022-11-03T07:09:51.272Z,9.51
2022-11-03T07:10:51.270Z,9.46
2022-11-03T07:11:51.162Z,9.55
2022-11-03T07:12:51.105Z,9.55
2022-11-03T07:13:51.050Z,9.59
2022-11-03T07:14:50.992Z,9.61
2022-11-03T07:15:50.974Z,9.56
2022-11-03T07:16:50.885Z,9.66
2022-11-03T07:17:50.828Z,9.61
2022-11-03T07:18:50.793Z,9.66
2022-11-03T07:19:50.746Z,9.69
2022-11-03T07:20:50.661Z,9.66
2022-11-03T07:21:50.623Z,9.69
2022-11-03T07:22:50.553Z,9.73
2022-11-03T07:23:50.491Z,9.77
2022-11-03T07:24:50.437Z,9.79
2022-11-03T07:25:50.384Z,9.74
2022-11-03T07:26:50.339Z,9.72
2022-11-03T07:27:50.271Z,9.74
2022-11-03T07:28:50.219Z,9.87
2022-11-03T07:29:50.181Z,9.83
2022-11-03T07:30:50.106Z,9.79
2022-11-03T07:31:50.050Z,9.89
2022-11-03T07:32:49.996Z,9.87
2022-11-03T07:33:49.940Z,9.89
2022-11-03T07:34:49.885Z,9.87
2022-11-03T07:36:17.475Z,9.86
2022-11-03T07:36:54.357Z,9.92
2022-11-03T07:37:49.720Z,9.95
2022-11-03T07:38:49.667Z,10.10
2022-11-03T07:39:59.096Z,10.01
2022-11-03T07:40:49.552Z,10.16
2022-11-03T07:41:49.506Z,10.22
2022-11-03T07:42:49.443Z,10.20
2022-11-03T07:43:49.391Z,10.17
2022-11-03T07:44:49.348Z,10.17
2022-11-03T07:45:49.287Z,10.31
2022-11-03T07:46:49.243Z,10.33
2022-11-03T07:47:49.169Z,10.38
2022-11-03T07:48:49.116Z,10.49
2022-11-03T07:49:49.077Z,10.59
2022-11-03T07:50:49.017Z,10.67
2022-11-03T07:51:48.961Z,10.75
2022-11-03T07:52:48.895Z,10.81
2022-11-03T07:53:48.846Z,10.84
2022-11-03T07:54:48.801Z,11.04
2022-11-03T07:55:48.752Z,11.07
2022-11-03T07:56:48.677Z,11.19
2022-11-03T07:57:48.625Z,11.25
2022-11-03T07:58:48.569Z,11.33
2022-11-03T07:59:48.542Z,11.32
2022-11-03T08:00:48.463Z,11.32
2022-11-03T08:01:48.511Z,11.35
2022-11-03T08:02:48.421Z,11.19
2022-11-03T08:03:48.315Z,11.23
2022-11-03T08:04:48.248Z,11.32
2022-11-03T08:05:48.199Z,11.41
2022-11-03T08:06:48.157Z,11.36
2022-11-03T08:07:48.086Z,11.48
2022-11-03T08:08:48.033Z,11.43
2022-11-03T08:09:47.979Z,11.44
2022-11-03T08:10:47.970Z,11.55
2022-11-03T08:11:47.871Z,11.59
2022-11-03T08:12:47.819Z,11.48
2022-11-03T08:13:47.767Z,11.52
2022-11-03T08:14:47.711Z,11.48
2022-11-03T08:15:47.662Z,11.57
2022-11-03T08:16:47.617Z,11.50
2022-11-03T08:17:50.922Z,11.50
2022-11-03T08:18:47.498Z,11.60
2022-11-03T08:19:47.458Z,11.70
2022-11-03T08:20:47.389Z,11.84
2022-11-03T08:21:47.341Z,12.10
2022-11-03T08:23:05.052Z,12.27
2022-11-03T08:23:47.904Z,12.36
2022-11-03T08:24:47.205Z,12.21
2022-11-03T08:25:47.130Z,12.24
2022-11-03T08:26:47.089Z,12.22
2022-11-03T08:27:47.036Z,12.29
2022-11-03T08:28:46.971Z,12.35
2022-11-03T08:29:46.934Z,12.20
2022-11-03T08:30:46.870Z,12.25
2022-11-03T08:31:46.977Z,12.32
2022-11-03T08:32:46.775Z,12.28
2022-11-03T08:33:46.713Z,12.29
2022-11-03T08:34:46.657Z,12.22
2022-11-03T08:35:46.607Z,12.15
2022-11-03T08:36:46.568Z,12.03
2022-11-03T08:37:46.519Z,12.13
2022-11-03T08:38:46.460Z,11.95
2022-11-03T08:39:46.412Z,12.06
2022-11-03T08:40:49.066Z,12.02
2022-11-03T08:41:46.294Z,12.10
2022-11-03T08:42:46.244Z,12.22
2022-11-03T08:43:46.190Z,12.22
2022-11-03T08:44:46.153Z,12.42
2022-11-03T08:45:46.086Z,12.36
2022-11-03T08:46:46.037Z,12.35
2022-11-03T08:47:46.005Z,12.29
2022-11-03T08:48:45.947Z,12.39
2022-11-03T08:49:45.883Z,12.46
2022-11-03T08:50:45.827Z,12.67
2022-11-03T08:51:45.793Z,12.80
2022-11-03T08:52:45.728Z,13.03
2022-11-03T08:53:45.676Z,13.23
2022-11-03T08:54:45.658Z,13.01
2022-11-03T08:55:45.591Z,12.97
2022-11-03T08:56:45.522Z,13.11
2022-11-03T08:57:45.470Z,12.90
2022-11-03T08:58:45.422Z,13.00
2022-11-03T08:59:45.371Z,13.01
2022-11-03T09:00:45.319Z,12.98
2022-11-03T09:01:45.319Z,13.00
2022-11-03T09:02:45.248Z,12.97
2022-11-03T09:03:45.284Z,12.83
2022-11-03T09:04:45.116Z,13.03
2022-11-03T09:05:45.067Z,13.03
2022-11-03T09:06:45.029Z,13.09
2022-11-03T09:10:44.830Z,13.49
2022-11-03T09:11:44.764Z,13.54
2022-11-03T09:12:44.718Z,13.65
2022-11-03T09:13:44.680Z,13.47
2022-11-03T09:14:44.622Z,13.59
2022-11-03T09:15:44.560Z,13.50
2022-11-03T09:16:44.512Z,13.52
2022-11-03T09:17:45.661Z,13.57
2022-11-03T09:18:44.430Z,13.86
2022-11-03T09:19:44.363Z,13.72
2022-11-03T09:20:44.324Z,13.74
2022-11-03T09:21:44.264Z,14.18
2022-11-03T09:22:44.209Z,14.45
2022-11-03T09:23:44.172Z,14.81
2022-11-03T09:24:44.122Z,15.06
2022-11-03T09:25:44.062Z,15.49
2022-11-03T09:26:44.013Z,15.36
2022-11-03T09:27:43.963Z,15.33
2022-11-03T09:28:43.917Z,15.61
2022-11-03T09:30:11.125Z,15.24
2022-11-03T09:30:43.825Z,15.06
2022-11-03T09:31:43.769Z,15.07
2022-11-03T09:32:43.720Z,14.66
2022-11-03T09:33:43.688Z,14.32
2022-11-03T09:34:43.622Z,15.06
2022-11-03T09:35:43.585Z,15.54
2022-11-03T09:36:43.524Z,15.46
2022-11-03T09:37:43.477Z,15.59
2022-11-03T09:38:43.443Z,16.01
2022-11-03T09:39:43.379Z,16.69
2022-11-03T09:40:43.381Z,16.69
2022-11-03T09:41:57.536Z,16.53
2022-11-03T09:42:43.253Z,16.17
2022-11-03T09:43:43.188Z,16.38
2022-11-03T09:44:43.149Z,16.20
2022-11-03T09:45:43.101Z,15.91
2022-11-03T09:46:43.063Z,15.79
2022-11-03T09:47:43.002Z,16.02
2022-11-03T09:48:42.951Z,15.76
2022-11-03T09:49:42.906Z,16.21
2022-11-03T09:50:42.859Z,16.51
2022-11-03T09:51:42.825Z,16.15
2022-11-03T09:52:46.106Z,15.61
2022-11-03T09:53:42.748Z,15.88
2022-11-03T09:54:42.691Z,15.76
2022-11-03T09:55:42.620Z,15.79
2022-11-03T09:56:42.586Z,16.23
2022-11-03T09:57:42.528Z,15.97
2022-11-03T09:58:42.476Z,15.70
2022-11-03T09:59:42.427Z,15.59
2022-11-03T10:00:42.418Z,15.59
2022-11-03T10:01:42.468Z,16.05
2022-11-03T10:02:42.291Z,16.17
2022-11-03T10:03:42.238Z,16.26
2022-11-03T10:04:42.216Z,16.24
2022-11-03T10:05:42.152Z,16.51
2022-11-03T10:06:42.098Z,16.74
2022-11-03T10:07:42.060Z,16.87
2022-11-03T10:08:41.999Z,17.42
2022-11-03T10:09:41.952Z,17.63
2022-11-03T10:10:41.917Z,17.59
2022-11-03T10:11:41.871Z,17.42
2022-11-03T10:12:41.808Z,17.41
2022-11-03T10:13:41.763Z,17.39
2022-11-03T10:14:41.714Z,17.38
2022-11-03T10:15:41.678Z,17.45
2022-11-03T10:16:41.616Z,17.15
2022-11-03T10:17:41.581Z,17.12
2022-11-03T10:18:41.519Z,17.16
2022-11-03T10:19:41.472Z,17.22
2022-11-03T10:20:41.438Z,16.26
2022-11-03T10:21:41.377Z,15.79
2022-11-03T10:22:41.530Z,16.16
2022-11-03T10:23:41.285Z,15.92
2022-11-03T10:24:41.248Z,16.05
2022-11-03T10:25:41.194Z,16.20
2022-11-03T10:26:41.137Z,15.83
2022-11-03T10:27:41.089Z,15.59
2022-11-03T10:28:41.038Z,15.55
2022-11-03T10:29:42.446Z,15.83
2022-11-03T10:30:58.144Z,16.04
2022-11-03T10:31:40.894Z,16.10
2022-11-03T10:32:40.844Z,16.41
2022-11-03T10:33:40.877Z,16.29
2022-11-03T10:34:40.746Z,16.28
2022-11-03T10:35:40.702Z,15.98
2022-11-03T10:36:40.662Z,15.80
2022-11-03T10:37:40.601Z,15.86
2022-11-03T10:38:40.551Z,15.94
2022-11-03T10:39:40.511Z,15.59
2022-11-03T10:40:48.722Z,15.72
2022-11-03T10:41:40.420Z,15.76
2022-11-03T10:42:40.352Z,15.73
2022-11-03T10:43:40.303Z,15.59
2022-11-03T10:44:40.253Z,15.49
2022-11-03T10:45:40.204Z,15.42
2022-11-03T10:46:55.530Z,15.04
2022-11-03T10:47:40.113Z,15.09
2022-11-03T10:48:40.054Z,15.51
2022-11-03T10:49:43.641Z,15.51
2022-11-03T10:50:39.956Z,15.62
2022-11-03T10:51:39.926Z,15.15
2022-11-03T10:52:39.859Z,15.15
2022-11-03T10:53:39.806Z,15.31
2022-11-03T10:54:39.756Z,15.03
2022-11-03T10:56:39.654Z,15.04
2022-11-03T10:57:39.623Z,15.11
2022-11-03T10:58:39.555Z,14.78
2022-11-03T10:59:39.526Z,14.41
2022-11-03T11:00:39.514Z,14.59
2022-11-03T11:01:39.530Z,14.85
2022-11-03T11:02:39.425Z,14.59
2022-11-03T11:03:39.302Z,14.47
2022-11-03T11:04:39.309Z,14.33
2022-11-03T11:05:39.216Z,14.47
2022-11-03T11:06:39.150Z,14.62
2022-11-03T11:07:39.155Z,14.32
2022-11-03T11:08:39.123Z,14.12
2022-11-03T11:09:39.003Z,14.08
2022-11-03T11:10:38.962Z,14.23
2022-11-03T11:11:38.901Z,14.11
2022-11-03T11:12:38.862Z,13.95
2022-11-03T11:13:38.795Z,14.11
2022-11-03T11:14:38.759Z,14.28
2022-11-03T11:15:38.732Z,14.41
2022-11-03T11:16:38.642Z,14.53
2022-11-03T11:17:38.607Z,14.59
2022-11-03T11:18:38.583Z,14.55
2022-11-03T11:19:38.487Z,14.53
2022-11-03T11:20:38.440Z,14.50
2022-11-03T11:21:38.391Z,14.28
2022-11-03T11:22:38.351Z,14.14
2022-11-03T11:23:38.287Z,14.10
2022-11-03T11:24:38.236Z,14.17
2022-11-03T11:25:38.192Z,13.95
2022-11-03T11:26:38.133Z,14.14
2022-11-03T11:27:38.098Z,14.47
2022-11-03T11:28:38.031Z,14.81
2022-11-03T11:29:37.991Z,15.00
2022-11-03T11:30:37.927Z,15.19
2022-11-03T11:31:37.877Z,15.54
2022-11-03T11:32:37.842Z,15.62
2022-11-03T11:33:37.776Z,15.77
2022-11-03T11:34:37.728Z,16.00
2022-11-03T11:35:37.680Z,16.17
2022-11-03T11:36:37.625Z,16.21
2022-11-03T11:37:37.571Z,16.20
2022-11-03T11:38:37.536Z,16.05
2022-11-03T11:39:37.485Z,15.62
2022-11-03T11:40:37.421Z,15.52
2022-11-03T11:41:37.370Z,15.44
2022-11-03T11:42:38.809Z,15.27
2022-11-03T11:43:37.280Z,15.40
2022-11-03T11:44:37.218Z,15.43
2022-11-03T11:45:37.168Z,15.49
2022-11-03T11:46:37.116Z,15.59
2022-11-03T11:47:37.081Z,15.54
2022-11-03T11:48:37.031Z,15.11
2022-11-03T11:49:36.963Z,14.72
2022-11-03T11:50:36.911Z,14.86
2022-11-03T11:51:36.863Z,15.02
2022-11-03T11:52:36.821Z,15.09
2022-11-03T11:53:36.765Z,15.03
2022-11-03T11:54:36.727Z,15.11
2022-11-03T11:55:36.664Z,14.96
2022-11-03T11:56:36.612Z,15.07
2022-11-03T11:57:36.560Z,14.66
2022-11-03T11:58:36.510Z,14.41
2022-11-03T11:59:36.471Z,14.28
2022-11-03T12:00:36.410Z,14.23
2022-11-03T12:01:36.494Z,14.15
2022-11-03T12:02:36.302Z,13.85
2022-11-03T12:03:36.315Z,13.87
2022-11-03T12:04:36.202Z,14.00
2022-11-03T12:05:36.156Z,13.89
2022-11-03T12:06:36.146Z,13.74
2022-11-03T12:07:36.049Z,13.75
2022-11-03T12:08:35.999Z,13.77
2022-11-03T12:09:35.949Z,13.77
2022-11-03T12:10:35.910Z,13.78
2022-11-03T12:11:35.843Z,13.81
2022-11-03T12:12:35.794Z,13.68
2022-11-03T12:13:35.740Z,13.75
2022-11-03T12:14:35.693Z,13.78
2022-11-03T12:15:35.653Z,13.65
2022-11-03T12:16:35.589Z,13.60
2022-11-03T12:17:35.542Z,13.54
2022-11-03T12:18:39.549Z,13.56
2022-11-03T12:19:35.448Z,13.56
2022-11-03T12:20:35.384Z,13.71
2022-11-03T12:21:35.360Z,13.79
2022-11-03T12:22:35.280Z,13.75
2022-11-03T12:23:35.227Z,13.77
2022-11-03T12:24:35.176Z,13.85
2022-11-03T12:25:35.140Z,13.87
2022-11-03T12:26:35.088Z,14.08
2022-11-03T12:27:35.019Z,14.14
2022-11-03T12:28:34.967Z,14.05
2022-11-03T12:29:34.915Z,13.92
2022-11-03T12:30:39.700Z,13.79
2022-11-03T12:31:37.003Z,13.54
2022-11-03T12:32:35.585Z,13.50
2022-11-03T12:33:34.709Z,13.41
2022-11-03T12:34:34.657Z,13.49
2022-11-03T12:35:34.613Z,13.50
2022-11-03T12:36:34.553Z,13.46
2022-11-03T12:37:34.521Z,13.47
2022-11-03T12:38:34.463Z,13.30
2022-11-03T12:39:34.398Z,13.30
2022-11-03T12:40:34.345Z,13.28
2022-11-03T12:41:34.295Z,13.42
2022-11-03T12:42:34.247Z,13.30
2022-11-03T12:43:34.205Z,13.46
2022-11-03T12:44:34.212Z,13.47
2022-11-03T12:45:34.088Z,13.53
2022-11-03T12:46:34.050Z,13.56
2022-11-03T12:47:33.983Z,13.57
2022-11-03T12:48:33.931Z,13.46
2022-11-03T12:49:33.892Z,13.49
2022-11-03T12:50:33.827Z,13.53
2022-11-03T12:51:33.782Z,13.59
2022-11-03T12:52:33.723Z,13.54
2022-11-03T12:53:33.670Z,13.50
2022-11-03T12:54:33.637Z,13.53
2022-11-03T12:55:33.568Z,13.53
2022-11-03T12:56:33.515Z,13.44
2022-11-03T12:57:33.462Z,13.33
2022-11-03T12:58:33.409Z,13.15
2022-11-03T12:59:33.367Z,13.01
2022-11-03T13:00:33.329Z,13.01
2022-11-03T13:01:33.443Z,13.00
2022-11-03T13:02:33.295Z,13.11
2022-11-03T13:03:33.149Z,13.15
2022-11-03T13:04:33.098Z,13.00
2022-11-03T13:05:33.059Z,13.13
2022-11-03T13:06:32.992Z,13.18
2022-11-03T13:07:35.038Z,13.13
2022-11-03T13:08:32.889Z,13.19
2022-11-03T13:09:32.848Z,13.22
2022-11-03T13:10:32.796Z,13.03
2022-11-03T13:11:32.730Z,12.94